sensor_id;sensor_type;location;lat;lon;timestamp;temperature;humidity
67133;HTU21D;54052;53.542;49.408;2023-04-01T00:00:52;4.64;74.80
67133;HTU21D;54052;53.542;49.408;2023-04-01T00:03:20;4.59;75.47
67133;HTU21D;54052;53.542;49.408;2023-04-01T00:05:46;4.56;75.31
67133;HTU21D;54052;53.542;49.408;2023-04-01T00:08:13;4.57;75.34
67133;HTU21D;54052;53.542;49.408;2023-04-01T00:10:39;4.60;75.37
67133;HTU21D;54052;53.542;49.408;2023-04-01T00:13:05;4.58;75.15
67133;HTU21D;54052;53.542;49.408;2023-04-01T00:15:31;4.53;75.27
67133;HTU21D;54052;53.542;49.408;2023-04-01T00:17:57;4.52;75.61
67133;HTU21D;54052;53.542;49.408;2023-04-01T00:20:24;4.51;75.60
67133;HTU21D;54052;53.542;49.408;2023-04-01T00:22:51;4.56;75.50
67133;HTU21D;54052;53.542;49.408;2023-04-01T00:25:17;4.54;75.75
67133;HTU21D;54052;53.542;49.408;2023-04-01T00:27:43;4.47;76.00
67133;HTU21D;54052;53.542;49.408;2023-04-01T00:30:10;4.44;76.12
67133;HTU21D;54052;53.542;49.408;2023-04-01T00:32:36;4.47;75.78
67133;HTU21D;54052;53.542;49.408;2023-04-01T00:35:03;4.45;76.07
67133;HTU21D;54052;53.542;49.408;2023-04-01T00:37:30;4.39;76.60
67133;HTU21D;54052;53.542;49.408;2023-04-01T00:39:56;4.36;77.17
67133;HTU21D;54052;53.542;49.408;2023-04-01T00:42:23;4.29;76.60
67133;HTU21D;54052;53.542;49.408;2023-04-01T00:44:51;4.30;76.42
67133;HTU21D;54052;53.542;49.408;2023-04-01T00:47:18;4.38;76.13
67133;HTU21D;54052;53.542;49.408;2023-04-01T00:49:47;4.42;76.24
67133;HTU21D;54052;53.542;49.408;2023-04-01T00:52:17;4.39;76.25
67133;HTU21D;54052;53.542;49.408;2023-04-01T00:54:47;4.37;76.18
67133;HTU21D;54052;53.542;49.408;2023-04-01T00:57:35;4.35;76.45
67133;HTU21D;54052;53.542;49.408;2023-04-01T01:00:05;4.28;76.20
67133;HTU21D;54052;53.542;49.408;2023-04-01T01:02:34;4.20;76.66
67133;HTU21D;54052;53.542;49.408;2023-04-01T01:05:01;4.26;76.41
67133;HTU21D;54052;53.542;49.408;2023-04-01T01:13:03;4.19;76.91
67133;HTU21D;54052;53.542;49.408;2023-04-01T01:15:36;4.21;76.97
67133;HTU21D;54052;53.542;49.408;2023-04-01T01:29:10;4.05;77.66
67133;HTU21D;54052;53.542;49.408;2023-04-01T01:37:16;4.04;77.34
67133;HTU21D;54052;53.542;49.408;2023-04-01T01:39:49;4.00;77.17
67133;HTU21D;54052;53.542;49.408;2023-04-01T01:42:17;4.01;77.23
67133;HTU21D;54052;53.542;49.408;2023-04-01T01:44:46;4.00;76.73
67133;HTU21D;54052;53.542;49.408;2023-04-01T01:47:14;3.98;76.64
67133;HTU21D;54052;53.542;49.408;2023-04-01T01:49:42;3.97;76.79
67133;HTU21D;54052;53.542;49.408;2023-04-01T01:52:09;3.93;76.70
67133;HTU21D;54052;53.542;49.408;2023-04-01T01:54:36;3.91;76.63
67133;HTU21D;54052;53.542;49.408;2023-04-01T01:57:09;3.87;77.13
67133;HTU21D;54052;53.542;49.408;2023-04-01T01:59:38;3.91;76.93
67133;HTU21D;54052;53.542;49.408;2023-04-01T02:02:06;3.89;76.86
67133;HTU21D;54052;53.542;49.408;2023-04-01T02:04:36;3.87;76.90
67133;HTU21D;54052;53.542;49.408;2023-04-01T02:07:09;3.97;76.50
67133;HTU21D;54052;53.542;49.408;2023-04-01T02:09:37;3.88;76.96
67133;HTU21D;54052;53.542;49.408;2023-04-01T02:12:06;3.80;77.44
67133;HTU21D;54052;53.542;49.408;2023-04-01T02:17:12;3.72;77.79
67133;HTU21D;54052;53.542;49.408;2023-04-01T02:20:00;3.73;77.69
67133;HTU21D;54052;53.542;49.408;2023-04-01T02:22:36;3.78;77.97
67133;HTU21D;54052;53.542;49.408;2023-04-01T02:25:10;3.80;78.37
67133;HTU21D;54052;53.542;49.408;2023-04-01T02:27:38;3.76;78.65
67133;HTU21D;54052;53.542;49.408;2023-04-01T02:30:05;3.72;78.23
67133;HTU21D;54052;53.542;49.408;2023-04-01T02:32:33;3.68;78.62
67133;HTU21D;54052;53.542;49.408;2023-04-01T02:35:01;3.67;78.72
67133;HTU21D;54052;53.542;49.408;2023-04-01T02:37:32;3.73;78.82
67133;HTU21D;54052;53.542;49.408;2023-04-01T02:40:03;3.72;79.28
67133;HTU21D;54052;53.542;49.408;2023-04-01T02:42:32;3.75;78.18
67133;HTU21D;54052;53.542;49.408;2023-04-01T02:44:59;3.78;77.96
67133;HTU21D;54052;53.542;49.408;2023-04-01T02:47:26;3.85;78.17
67133;HTU21D;54052;53.542;49.408;2023-04-01T02:49:52;3.80;77.70
67133;HTU21D;54052;53.542;49.408;2023-04-01T02:52:27;3.85;77.56
67133;HTU21D;54052;53.542;49.408;2023-04-01T02:54:54;3.87;77.47
67133;HTU21D;54052;53.542;49.408;2023-04-01T02:57:21;3.89;77.50
67133;HTU21D;54052;53.542;49.408;2023-04-01T02:59:48;3.92;77.35
67133;HTU21D;54052;53.542;49.408;2023-04-01T03:02:14;3.95;77.24
67133;HTU21D;54052;53.542;49.408;2023-04-01T03:04:41;3.99;77.04
67133;HTU21D;54052;53.542;49.408;2023-04-01T03:07:07;4.12;76.50
67133;HTU21D;54052;53.542;49.408;2023-04-01T03:09:36;4.17;75.92
67133;HTU21D;54052;53.542;49.408;2023-04-01T03:12:03;4.29;75.82
67133;HTU21D;54052;53.542;49.408;2023-04-01T03:14:29;4.38;74.99
67133;HTU21D;54052;53.542;49.408;2023-04-01T03:16:55;4.51;74.27
67133;HTU21D;54052;53.542;49.408;2023-04-01T03:19:21;4.61;73.77
67133;HTU21D;54052;53.542;49.408;2023-04-01T03:21:47;4.78;73.49
67133;HTU21D;54052;53.542;49.408;2023-04-01T03:24:13;4.82;73.22
67133;HTU21D;54052;53.542;49.408;2023-04-01T03:26:39;4.92;72.92
67133;HTU21D;54052;53.542;49.408;2023-04-01T03:29:05;5.05;72.33
67133;HTU21D;54052;53.542;49.408;2023-04-01T03:31:31;5.04;72.69
67133;HTU21D;54052;53.542;49.408;2023-04-01T03:33:57;5.15;71.77
67133;HTU21D;54052;53.542;49.408;2023-04-01T03:36:24;5.12;71.69
67133;HTU21D;54052;53.542;49.408;2023-04-01T03:38:50;5.12;71.95
67133;HTU21D;54052;53.542;49.408;2023-04-01T03:41:17;5.17;72.42
67133;HTU21D;54052;53.542;49.408;2023-04-01T03:43:43;5.22;71.26
67133;HTU21D;54052;53.542;49.408;2023-04-01T03:46:17;5.33;70.19
67133;HTU21D;54052;53.542;49.408;2023-04-01T03:48:44;5.39;70.00
67133;HTU21D;54052;53.542;49.408;2023-04-01T03:51:10;5.51;69.10
67133;HTU21D;54052;53.542;49.408;2023-04-01T03:53:37;5.66;67.89
67133;HTU21D;54052;53.542;49.408;2023-04-01T03:56:07;5.70;67.61
67133;HTU21D;54052;53.542;49.408;2023-04-01T03:58:34;5.80;67.27
67133;HTU21D;54052;53.542;49.408;2023-04-01T04:01:01;5.86;66.68
67133;HTU21D;54052;53.542;49.408;2023-04-01T04:03:27;5.71;67.17
67133;HTU21D;54052;53.542;49.408;2023-04-01T04:05:54;5.72;68.17
67133;HTU21D;54052;53.542;49.408;2023-04-01T04:08:21;5.71;67.79
67133;HTU21D;54052;53.542;49.408;2023-04-01T04:10:47;5.62;67.75
67133;HTU21D;54052;53.542;49.408;2023-04-01T04:13:20;5.61;67.78
67133;HTU21D;54052;53.542;49.408;2023-04-01T04:15:46;5.64;67.94
67133;HTU21D;54052;53.542;49.408;2023-04-01T04:18:12;5.51;68.57
67133;HTU21D;54052;53.542;49.408;2023-04-01T04:20:44;5.46;68.93
67133;HTU21D;54052;53.542;49.408;2023-04-01T04:23:11;5.53;69.07
67133;HTU21D;54052;53.542;49.408;2023-04-01T04:25:38;5.63;68.89
67133;HTU21D;54052;53.542;49.408;2023-04-01T04:28:04;5.71;67.50
67133;HTU21D;54052;53.542;49.408;2023-04-01T04:30:30;5.64;68.04
67133;HTU21D;54052;53.542;49.408;2023-04-01T04:32:56;5.65;67.63
67133;HTU21D;54052;53.542;49.408;2023-04-01T04:35:23;5.83;67.47
67133;HTU21D;54052;53.542;49.408;2023-04-01T04:37:49;5.92;66.81
67133;HTU21D;54052;53.542;49.408;2023-04-01T04:40:15;6.10;65.75
67133;HTU21D;54052;53.542;49.408;2023-04-01T04:42:42;6.16;65.43
67133;HTU21D;54052;53.542;49.408;2023-04-01T04:45:08;6.12;65.78
67133;HTU21D;54052;53.542;49.408;2023-04-01T04:47:34;6.16;65.92
67133;HTU21D;54052;53.542;49.408;2023-04-01T04:50:02;6.30;64.67
67133;HTU21D;54052;53.542;49.408;2023-04-01T04:52:28;6.40;64.21
67133;HTU21D;54052;53.542;49.408;2023-04-01T04:54:54;6.46;63.29
67133;HTU21D;54052;53.542;49.408;2023-04-01T04:57:20;6.46;63.92
67133;HTU21D;54052;53.542;49.408;2023-04-01T04:59:48;6.61;62.30
67133;HTU21D;54052;53.542;49.408;2023-04-01T05:02:14;6.61;62.01
67133;HTU21D;54052;53.542;49.408;2023-04-01T05:04:40;6.66;61.67
67133;HTU21D;54052;53.542;49.408;2023-04-01T05:07:06;6.80;61.84
67133;HTU21D;54052;53.542;49.408;2023-04-01T05:09:33;6.91;60.65
67133;HTU21D;54052;53.542;49.408;2023-04-01T05:11:59;6.98;60.05
67133;HTU21D;54052;53.542;49.408;2023-04-01T05:14:26;6.76;60.57
67133;HTU21D;54052;53.542;49.408;2023-04-01T05:16:52;6.80;60.51
67133;HTU21D;54052;53.542;49.408;2023-04-01T05:19:20;6.84;60.29
67133;HTU21D;54052;53.542;49.408;2023-04-01T05:21:46;6.98;59.82
67133;HTU21D;54052;53.542;49.408;2023-04-01T05:24:12;7.10;59.45
67133;HTU21D;54052;53.542;49.408;2023-04-01T05:26:38;7.29;58.32
67133;HTU21D;54052;53.542;49.408;2023-04-01T05:29:05;7.37;58.25
67133;HTU21D;54052;53.542;49.408;2023-04-01T05:31:31;7.34;57.74
67133;HTU21D;54052;53.542;49.408;2023-04-01T05:33:58;7.40;57.46
67133;HTU21D;54052;53.542;49.408;2023-04-01T05:36:24;7.47;57.39
67133;HTU21D;54052;53.542;49.408;2023-04-01T05:38:50;7.41;55.10
67133;HTU21D;54052;53.542;49.408;2023-04-01T05:41:17;7.44;55.05
67133;HTU21D;54052;53.542;49.408;2023-04-01T05:43:43;7.31;52.36
67133;HTU21D;54052;53.542;49.408;2023-04-01T05:46:10;7.23;52.65
67133;HTU21D;54052;53.542;49.408;2023-04-01T05:48:36;7.31;54.20
67133;HTU21D;54052;53.542;49.408;2023-04-01T05:51:03;7.37;51.85
67133;HTU21D;54052;53.542;49.408;2023-04-01T05:53:29;7.27;50.68
67133;HTU21D;54052;53.542;49.408;2023-04-01T05:55:55;7.17;51.69
67133;HTU21D;54052;53.542;49.408;2023-04-01T05:58:21;7.26;51.14
67133;HTU21D;54052;53.542;49.408;2023-04-01T06:00:47;7.34;52.24
67133;HTU21D;54052;53.542;49.408;2023-04-01T06:03:13;7.45;52.60
67133;HTU21D;54052;53.542;49.408;2023-04-01T06:05:41;7.55;51.41
67133;HTU21D;54052;53.542;49.408;2023-04-01T06:08:13;7.67;51.82
67133;HTU21D;54052;53.542;49.408;2023-04-01T06:11:22;7.84;51.52
67133;HTU21D;54052;53.542;49.408;2023-04-01T06:23:05;7.96;51.72
67133;HTU21D;54052;53.542;49.408;2023-04-01T06:31:26;7.96;50.39
67133;HTU21D;54052;53.542;49.408;2023-04-01T06:42:57;8.14;52.86
67133;HTU21D;54052;53.542;49.408;2023-04-01T06:45:57;8.19;50.84
67133;HTU21D;54052;53.542;49.408;2023-04-01T06:55:01;8.50;50.40
67133;HTU21D;54052;53.542;49.408;2023-04-01T06:57:42;8.53;50.29
67133;HTU21D;54052;53.542;49.408;2023-04-01T07:00:37;8.60;50.80
67133;HTU21D;54052;53.542;49.408;2023-04-01T07:03:21;8.88;50.40
67133;HTU21D;54052;53.542;49.408;2023-04-01T07:05:49;8.95;49.69
67133;HTU21D;54052;53.542;49.408;2023-04-01T07:08:21;8.97;49.66
67133;HTU21D;54052;53.542;49.408;2023-04-01T07:10:56;8.95;49.12
67133;HTU21D;54052;53.542;49.408;2023-04-01T07:13:29;8.90;49.62
67133;HTU21D;54052;53.542;49.408;2023-04-01T07:16:07;8.94;50.02
67133;HTU21D;54052;53.542;49.408;2023-04-01T07:18:41;8.91;49.73
67133;HTU21D;54052;53.542;49.408;2023-04-01T07:21:36;8.97;49.00
67133;HTU21D;54052;53.542;49.408;2023-04-01T07:24:05;9.00;49.90
67133;HTU21D;54052;53.542;49.408;2023-04-01T07:26:35;9.15;48.82
67133;HTU21D;54052;53.542;49.408;2023-04-01T07:29:01;9.17;48.74
67133;HTU21D;54052;53.542;49.408;2023-04-01T07:51:29;9.52;48.33
67133;HTU21D;54052;53.542;49.408;2023-04-01T07:54:06;9.64;48.94
67133;HTU21D;54052;53.542;49.408;2023-04-01T07:59:27;9.82;47.42
67133;HTU21D;54052;53.542;49.408;2023-04-01T08:10:37;10.05;48.31
67133;HTU21D;54052;53.542;49.408;2023-04-01T08:13:53;10.14;47.74
67133;HTU21D;54052;53.542;49.408;2023-04-01T08:16:23;10.27;46.51
67133;HTU21D;54052;53.542;49.408;2023-04-01T08:19:09;10.21;45.85
67133;HTU21D;54052;53.542;49.408;2023-04-01T08:21:45;10.23;46.30
67133;HTU21D;54052;53.542;49.408;2023-04-01T08:24:46;10.22;46.16
67133;HTU21D;54052;53.542;49.408;2023-04-01T08:27:28;10.27;45.73
67133;HTU21D;54052;53.542;49.408;2023-04-01T08:30:02;10.33;46.36
67133;HTU21D;54052;53.542;49.408;2023-04-01T08:32:36;10.50;46.02
67133;HTU21D;54052;53.542;49.408;2023-04-01T08:35:16;10.60;45.51
67133;HTU21D;54052;53.542;49.408;2023-04-01T08:37:44;10.60;45.25
67133;HTU21D;54052;53.542;49.408;2023-04-01T08:54:18;10.66;45.76
67133;HTU21D;54052;53.542;49.408;2023-04-01T08:56:57;10.64;45.64
67133;HTU21D;54052;53.542;49.408;2023-04-01T09:02:45;10.75;43.84
67133;HTU21D;54052;53.542;49.408;2023-04-01T09:20:17;10.97;42.47
67133;HTU21D;54052;53.542;49.408;2023-04-01T09:31:04;11.34;42.15
67133;HTU21D;54052;53.542;49.408;2023-04-01T09:36:26;11.59;41.61
67133;HTU21D;54052;53.542;49.408;2023-04-01T09:39:36;11.59;41.29
67133;HTU21D;54052;53.542;49.408;2023-04-01T09:42:38;11.68;41.04
67133;HTU21D;54052;53.542;49.408;2023-04-01T09:56:23;11.98;39.78
67133;HTU21D;54052;53.542;49.408;2023-04-01T10:02:20;12.29;40.90
67133;HTU21D;54052;53.542;49.408;2023-04-01T10:14:13;12.29;39.34
67133;HTU21D;54052;53.542;49.408;2023-04-01T10:16:15;12.25;39.94
67133;HTU21D;54052;53.542;49.408;2023-04-01T10:30:50;12.65;38.59
67133;HTU21D;54052;53.542;49.408;2023-04-01T11:34:56;12.76;36.14
67133;HTU21D;54052;53.542;49.408;2023-04-01T11:46:03;13.05;38.18
67133;HTU21D;54052;53.542;49.408;2023-04-01T11:49:02;12.97;38.12
67133;HTU21D;54052;53.542;49.408;2023-04-01T11:51:42;12.78;39.33
67133;HTU21D;54052;53.542;49.408;2023-04-01T11:59:54;13.02;39.61
67133;HTU21D;54052;53.542;49.408;2023-04-01T12:08:50;12.97;39.31
67133;HTU21D;54052;53.542;49.408;2023-04-01T12:14:49;12.96;40.28
67133;HTU21D;54052;53.542;49.408;2023-04-01T12:22:57;12.78;40.53
67133;HTU21D;54052;53.542;49.408;2023-04-01T12:25:49;12.65;40.65
67133;HTU21D;54052;53.542;49.408;2023-04-01T12:28:37;12.65;40.92
67133;HTU21D;54052;53.542;49.408;2023-04-01T12:45:14;12.22;41.86
67133;HTU21D;54052;53.542;49.408;2023-04-01T13:01:50;12.27;41.69
67133;HTU21D;54052;53.542;49.408;2023-04-01T13:07:28;12.16;41.52
67133;HTU21D;54052;53.542;49.408;2023-04-01T13:15:58;11.89;42.30
67133;HTU21D;54052;53.542;49.408;2023-04-01T13:19:14;11.89;42.04
67133;HTU21D;54052;53.542;49.408;2023-04-01T13:30:02;11.71;42.79
67133;HTU21D;54052;53.542;49.408;2023-04-01T13:35:48;11.64;43.35
67133;HTU21D;54052;53.542;49.408;2023-04-01T13:43:51;11.60;42.97
67133;HTU21D;54052;53.542;49.408;2023-04-01T13:49:24;11.53;43.53
67133;HTU21D;54052;53.542;49.408;2023-04-01T13:55:30;11.51;43.92
67133;HTU21D;54052;53.542;49.408;2023-04-01T14:06:23;11.26;44.80
67133;HTU21D;54052;53.542;49.408;2023-04-01T14:09:18;11.26;44.35
67133;HTU21D;54052;53.542;49.408;2023-04-01T14:25:23;11.11;44.52
67133;HTU21D;54052;53.542;49.408;2023-04-01T14:30:45;11.04;44.61
67133;HTU21D;54052;53.542;49.408;2023-04-01T14:44:18;10.72;45.77
67133;HTU21D;54052;53.542;49.408;2023-04-01T14:50:14;10.67;45.68
67133;HTU21D;54052;53.542;49.408;2023-04-01T14:52:52;10.60;46.05
67133;HTU21D;54052;53.542;49.408;2023-04-01T14:58:08;10.49;46.51
67133;HTU21D;54052;53.542;49.408;2023-04-01T15:03:20;10.37;46.98
67133;HTU21D;54052;53.542;49.408;2023-04-01T15:08:34;10.26;47.50
67133;HTU21D;54052;53.542;49.408;2023-04-01T15:17:15;10.07;47.79
67133;HTU21D;54052;53.542;49.408;2023-04-01T15:25:21;9.89;48.42
67133;HTU21D;54052;53.542;49.408;2023-04-01T15:33:36;9.71;49.23
67133;HTU21D;54052;53.542;49.408;2023-04-01T15:39:09;9.63;50.10
67133;HTU21D;54052;53.542;49.408;2023-04-01T15:50:16;9.41;50.31
67133;HTU21D;54052;53.542;49.408;2023-04-01T15:52:59;9.33;51.56
67133;HTU21D;54052;53.542;49.408;2023-04-01T16:07:03;9.16;51.11
67133;HTU21D;54052;53.542;49.408;2023-04-01T16:09:43;9.17;51.21
67133;HTU21D;54052;53.542;49.408;2023-04-01T16:13:19;9.09;51.02
67133;HTU21D;54052;53.542;49.408;2023-04-01T16:18:32;9.03;51.68
67133;HTU21D;54052;53.542;49.408;2023-04-01T16:24:17;8.94;52.01
67133;HTU21D;54052;53.542;49.408;2023-04-01T16:27:19;8.91;52.44
67133;HTU21D;54052;53.542;49.408;2023-04-01T16:30:00;8.87;52.11
67133;HTU21D;54052;53.542;49.408;2023-04-01T16:32:43;8.87;52.55
67133;HTU21D;54052;53.542;49.408;2023-04-01T16:37:50;8.85;52.04
67133;HTU21D;54052;53.542;49.408;2023-04-01T16:41:20;8.81;52.04
67133;HTU21D;54052;53.542;49.408;2023-04-01T16:45:57;8.73;52.07
67133;HTU21D;54052;53.542;49.408;2023-04-01T16:48:58;8.67;53.01
67133;HTU21D;54052;53.542;49.408;2023-04-01T16:51:35;8.71;53.10
67133;HTU21D;54052;53.542;49.408;2023-04-01T16:54:28;8.73;53.44
67133;HTU21D;54052;53.542;49.408;2023-04-01T16:57:10;8.67;53.49
67133;HTU21D;54052;53.542;49.408;2023-04-01T16:59:53;8.62;53.32
67133;HTU21D;54052;53.542;49.408;2023-04-01T17:02:35;8.61;53.16
67133;HTU21D;54052;53.542;49.408;2023-04-01T17:05:08;8.62;53.20
67133;HTU21D;54052;53.542;49.408;2023-04-01T17:18:08;8.59;55.22
67133;HTU21D;54052;53.542;49.408;2023-04-01T17:20:48;8.56;55.00
67133;HTU21D;54052;53.542;49.408;2023-04-01T17:23:21;8.55;55.34
67133;HTU21D;54052;53.542;49.408;2023-04-01T17:45:24;8.52;56.39
67133;HTU21D;54052;53.542;49.408;2023-04-01T17:48:06;8.51;56.33
67133;HTU21D;54052;53.542;49.408;2023-04-01T17:50:56;8.53;56.21
67133;HTU21D;54052;53.542;49.408;2023-04-01T17:59:37;8.50;56.96
67133;HTU21D;54052;53.542;49.408;2023-04-01T18:07:59;8.58;57.17
67133;HTU21D;54052;53.542;49.408;2023-04-01T18:10:54;8.57;56.72
67133;HTU21D;54052;53.542;49.408;2023-04-01T18:14:13;8.58;56.65
67133;HTU21D;54052;53.542;49.408;2023-04-01T18:16:15;8.62;56.55
67133;HTU21D;54052;53.542;49.408;2023-04-01T18:19:03;8.65;56.85
67133;HTU21D;54052;53.542;49.408;2023-04-01T18:21:42;8.60;56.85
67133;HTU21D;54052;53.542;49.408;2023-04-01T18:26:43;8.48;56.71
67133;HTU21D;54052;53.542;49.408;2023-04-01T18:38:33;8.47;57.20
67133;HTU21D;54052;53.542;49.408;2023-04-01T18:41:36;8.43;57.71
67133;HTU21D;54052;53.542;49.408;2023-04-01T18:52:47;8.29;58.74
67133;HTU21D;54052;53.542;49.408;2023-04-01T18:55:29;8.26;59.29
67133;HTU21D;54052;53.542;49.408;2023-04-01T19:03:38;8.11;60.30
67133;HTU21D;54052;53.542;49.408;2023-04-01T19:06:33;8.09;60.23
67133;HTU21D;54052;53.542;49.408;2023-04-01T19:09:16;8.11;60.54
67133;HTU21D;54052;53.542;49.408;2023-04-01T19:14:44;8.06;60.46
67133;HTU21D;54052;53.542;49.408;2023-04-01T19:21:06;8.12;60.48
67133;HTU21D;54052;53.542;49.408;2023-04-01T19:26:28;8.04;60.98
67133;HTU21D;54052;53.542;49.408;2023-04-01T19:29:05;8.01;60.93
67133;HTU21D;54052;53.542;49.408;2023-04-01T19:34:34;8.01;60.94
67133;HTU21D;54052;53.542;49.408;2023-04-01T19:37:09;7.99;61.41
67133;HTU21D;54052;53.542;49.408;2023-04-01T19:39:56;8.00;60.91
67133;HTU21D;54052;53.542;49.408;2023-04-01T19:56:20;7.90;61.22
67133;HTU21D;54052;53.542;49.408;2023-04-01T20:04:08;7.73;61.38
67133;HTU21D;54052;53.542;49.408;2023-04-01T20:07:04;7.71;61.25
67133;HTU21D;54052;53.542;49.408;2023-04-01T20:17:54;7.73;60.33
67133;HTU21D;54052;53.542;49.408;2023-04-01T20:20:28;7.61;60.55
67133;HTU21D;54052;53.542;49.408;2023-04-01T20:23:02;7.58;60.64
67133;HTU21D;54052;53.542;49.408;2023-04-01T20:41:27;7.53;58.25
67133;HTU21D;54052;53.542;49.408;2023-04-01T20:44:12;7.53;57.86
67133;HTU21D;54052;53.542;49.408;2023-04-01T21:00:28;7.43;56.37
67133;HTU21D;54052;53.542;49.408;2023-04-01T21:03:26;7.45;57.35
67133;HTU21D;54052;53.542;49.408;2023-04-01T21:08:35;7.39;55.79
67133;HTU21D;54052;53.542;49.408;2023-04-01T21:11:18;7.44;55.73
67133;HTU21D;54052;53.542;49.408;2023-04-01T21:39:18;7.42;56.93
67133;HTU21D;54052;53.542;49.408;2023-04-01T21:45:08;7.41;56.19
67133;HTU21D;54052;53.542;49.408;2023-04-01T22:05:22;7.48;55.29
67133;HTU21D;54052;53.542;49.408;2023-04-01T22:10:46;7.48;55.39
67133;HTU21D;54052;53.542;49.408;2023-04-01T22:13:59;7.50;55.00
67133;HTU21D;54052;53.542;49.408;2023-04-01T22:16:43;7.52;55.36
67133;HTU21D;54052;53.542;49.408;2023-04-01T22:19:41;7.58;55.53
67133;HTU21D;54052;53.542;49.408;2023-04-01T22:25:09;7.53;56.01
67133;HTU21D;54052;53.542;49.408;2023-04-01T22:27:55;7.54;56.23
67133;HTU21D;54052;53.542;49.408;2023-04-01T22:30:50;7.53;55.41
67133;HTU21D;54052;53.542;49.408;2023-04-01T22:37:05;7.50;55.39
67133;HTU21D;54052;53.542;49.408;2023-04-01T22:49:59;7.53;55.81
67133;HTU21D;54052;53.542;49.408;2023-04-01T22:52:41;7.54;56.37
67133;HTU21D;54052;53.542;49.408;2023-04-01T22:55:20;7.49;56.64
67133;HTU21D;54052;53.542;49.408;2023-04-01T22:58:09;7.43;56.58
67133;HTU21D;54052;53.542;49.408;2023-04-01T23:00:46;7.41;56.40
67133;HTU21D;54052;53.542;49.408;2023-04-01T23:03:17;7.39;57.71
67133;HTU21D;54052;53.542;49.408;2023-04-01T23:05:55;7.37;56.77
67133;HTU21D;54052;53.542;49.408;2023-04-01T23:11:32;7.33;57.61
67133;HTU21D;54052;53.542;49.408;2023-04-01T23:17:00;7.39;57.00
67133;HTU21D;54052;53.542;49.408;2023-04-01T23:25:43;7.42;56.68
67133;HTU21D;54052;53.542;49.408;2023-04-01T23:28:33;7.43;56.85
67133;HTU21D;54052;53.542;49.408;2023-04-01T23:31:01;7.44;56.97
67133;HTU21D;54052;53.542;49.408;2023-04-01T23:33:29;7.46;57.20
67133;HTU21D;54052;53.542;49.408;2023-04-01T23:36:13;7.44;57.87
67133;HTU21D;54052;53.542;49.408;2023-04-01T23:38:41;7.44;56.68
67133;HTU21D;54052;53.542;49.408;2023-04-01T23:41:23;7.49;56.81
67133;HTU21D;54052;53.542;49.408;2023-04-01T23:46:27;7.58;56.49
67133;HTU21D;54052;53.542;49.408;2023-04-01T23:48:55;7.48;56.98
67133;HTU21D;54052;53.542;49.408;2023-04-01T23:51:56;7.45;56.97
67133;HTU21D;54052;53.542;49.408;2023-04-01T23:54:34;7.49;56.74
67133;HTU21D;54052;53.542;49.408;2023-04-01T23:57:10;7.53;56.79
67133;HTU21D;54052;53.542;49.408;2023-04-01T23:59:37;7.54;56.84
